createdAt,value
2024-03-09T00:01:49.234Z,92.08
2024-03-09T00:03:50.814Z,92.70
2024-03-09T00:05:52.394Z,92.99
2024-03-09T00:07:55.668Z,92.49
2024-03-09T00:09:57.247Z,92.57
2024-03-09T00:11:58.783Z,92.62
2024-03-09T00:14:00.440Z,92.66
2024-03-09T00:16:03.729Z,92.37
2024-03-09T00:18:05.729Z,93.00
2024-03-09T00:20:08.990Z,93.03
2024-03-09T00:22:10.570Z,92.97
2024-03-09T00:24:12.098Z,92.16
2024-03-09T00:26:13.903Z,91.33
2024-03-09T00:28:15.530Z,91.79
2024-03-09T00:30:17.255Z,92.11
2024-03-09T00:32:20.207Z,92.23
2024-03-09T00:34:21.747Z,92.72
2024-03-09T00:36:23.289Z,92.94
2024-03-09T00:38:24.865Z,93.38
2024-03-09T00:40:27.739Z,93.68
2024-03-09T00:42:29.357Z,93.11
2024-03-09T00:44:30.956Z,93.16
2024-03-09T00:46:32.562Z,93.35
2024-03-09T00:48:35.443Z,93.45
2024-03-09T00:50:36.977Z,92.86
2024-03-09T00:52:39.077Z,92.60
2024-03-09T00:54:40.669Z,92.16
2024-03-09T00:56:42.238Z,92.69
2024-03-09T00:58:43.832Z,92.47
2024-03-09T01:00:45.390Z,92.55
2024-03-09T01:02:49.214Z,90.98
2024-03-09T01:04:52.228Z,90.98
2024-03-09T01:06:53.842Z,90.99
2024-03-09T01:08:55.383Z,91.90
2024-03-09T01:10:57.398Z,91.68
2024-03-09T01:12:59.017Z,91.98
2024-03-09T01:15:00.687Z,91.99
2024-03-09T01:17:02.285Z,91.74
2024-03-09T01:19:03.850Z,91.86
2024-03-09T01:21:06.923Z,91.34
2024-03-09T01:23:08.537Z,92.29
2024-03-09T01:25:10.355Z,92.75
2024-03-09T01:27:11.893Z,94.50
2024-03-09T01:29:13.627Z,95.09
2024-03-09T01:31:15.274Z,94.42
2024-03-09T01:33:16.894Z,93.71
2024-03-09T01:35:18.637Z,93.83
2024-03-09T01:37:21.606Z,93.49
2024-03-09T01:39:23.367Z,92.93
2024-03-09T01:41:25.048Z,93.23
2024-03-09T01:43:26.715Z,92.96
2024-03-09T01:45:28.298Z,93.68
2024-03-09T01:47:29.886Z,93.71
2024-03-09T01:49:31.966Z,93.71
2024-03-09T01:51:33.920Z,93.63
2024-03-09T01:53:38.958Z,95.93
2024-03-09T01:55:41.033Z,95.27
2024-03-09T01:57:42.661Z,95.60
2024-03-09T01:59:48.194Z,94.99
2024-03-09T02:01:49.890Z,94.25
2024-03-09T02:03:55.858Z,94.64
2024-03-09T02:05:57.515Z,94.58
2024-03-09T02:07:59.113Z,93.91
2024-03-09T02:10:02.168Z,94.63
2024-03-09T02:12:04.931Z,93.23
2024-03-09T02:14:06.647Z,93.80
2024-03-09T02:16:08.339Z,93.13
2024-03-09T02:18:09.934Z,93.33
2024-03-09T02:20:12.381Z,93.05
2024-03-09T02:22:16.369Z,93.55
2024-03-09T02:24:21.740Z,93.52
2024-03-09T02:26:25.096Z,93.51
2024-03-09T02:28:26.685Z,93.52
2024-03-09T02:30:28.313Z,93.04
2024-03-09T02:32:30.822Z,93.52
2024-03-09T02:34:32.543Z,93.65
2024-03-09T02:36:35.175Z,94.02
2024-03-09T02:38:36.743Z,94.58
2024-03-09T02:40:38.460Z,95.09
2024-03-09T02:42:41.978Z,94.49
2024-03-09T02:44:43.581Z,93.97
2024-03-09T02:46:45.157Z,94.80
2024-03-09T02:48:47.213Z,94.00
2024-03-09T02:50:48.797Z,93.79
2024-03-09T02:52:50.343Z,93.70
2024-03-09T02:54:51.914Z,94.34
2024-03-09T02:56:53.516Z,94.14
2024-03-09T02:58:56.554Z,95.21
2024-03-09T03:00:58.214Z,95.07
2024-03-09T03:02:59.774Z,94.68
2024-03-09T03:05:01.384Z,93.87
2024-03-09T03:07:03.125Z,93.50
2024-03-09T03:09:05.619Z,92.71
2024-03-09T03:11:07.282Z,92.90
2024-03-09T03:13:09.061Z,92.76
2024-03-09T03:15:12.317Z,94.50
2024-03-09T03:17:13.966Z,96.77
2024-03-09T03:19:15.601Z,96.75
2024-03-09T03:21:17.278Z,96.97
2024-03-09T03:23:18.870Z,95.63
2024-03-09T03:25:20.402Z,94.60
2024-03-09T03:27:21.977Z,94.53
2024-03-09T03:29:23.523Z,94.80
2024-03-09T03:31:26.618Z,95.28
2024-03-09T03:33:28.150Z,95.22
2024-03-09T03:35:29.686Z,94.72
2024-03-09T03:37:31.307Z,94.09
2024-03-09T03:39:32.864Z,94.57
2024-03-09T03:41:34.413Z,94.30
2024-03-09T03:43:36.509Z,94.03
2024-03-09T03:45:38.681Z,94.47
2024-03-09T03:47:41.711Z,95.48
2024-03-09T03:49:43.295Z,96.53
2024-03-09T03:51:44.845Z,97.98
2024-03-09T03:53:46.653Z,95.54
2024-03-09T03:55:48.536Z,97.07
2024-03-09T03:57:52.025Z,99.36
2024-03-09T03:59:53.921Z,98.09
2024-03-09T04:01:55.596Z,97.57
2024-03-09T04:03:58.581Z,96.98
2024-03-09T04:06:00.261Z,96.50
2024-03-09T04:08:01.856Z,96.35
2024-03-09T04:10:03.885Z,96.62
2024-03-09T04:12:05.759Z,96.77
2024-03-09T04:14:07.714Z,97.95
2024-03-09T04:16:09.356Z,100.00
2024-03-09T04:18:11.116Z,99.79
2024-03-09T04:20:14.171Z,100.00
2024-03-09T04:22:15.818Z,99.96
2024-03-09T04:24:17.397Z,99.16
2024-03-09T04:26:18.989Z,98.29
2024-03-09T04:28:20.808Z,97.76
2024-03-09T04:30:22.404Z,97.46
2024-03-09T04:32:24.072Z,96.24
2024-03-09T04:34:25.639Z,94.87
2024-03-09T04:36:28.582Z,95.81
2024-03-09T04:38:30.152Z,97.16
2024-03-09T04:40:31.766Z,97.28
2024-03-09T04:42:33.357Z,96.79
2024-03-09T04:44:34.983Z,96.76
2024-03-09T04:46:36.672Z,95.84
2024-03-09T04:48:39.328Z,95.22
2024-03-09T04:50:40.930Z,94.39
2024-03-09T04:52:43.942Z,94.25
2024-03-09T04:54:45.589Z,95.08
2024-03-09T04:56:47.128Z,93.59
2024-03-09T04:58:48.768Z,92.72
2024-03-09T05:00:50.491Z,93.37
2024-03-09T05:02:52.323Z,92.06
2024-03-09T05:04:54.435Z,91.51
2024-03-09T05:06:56.012Z,91.43
2024-03-09T05:08:59.031Z,90.58
2024-03-09T05:11:00.676Z,91.28
2024-03-09T05:13:02.400Z,91.51
2024-03-09T05:15:04.828Z,91.68
2024-03-09T05:17:06.420Z,90.97
2024-03-09T05:19:08.030Z,91.24
2024-03-09T05:21:09.630Z,91.80
2024-03-09T05:23:14.358Z,91.32
2024-03-09T05:25:19.354Z,90.54
2024-03-09T05:27:20.908Z,91.18
2024-03-09T05:29:22.545Z,90.88
2024-03-09T05:31:25.532Z,91.71
2024-03-09T05:33:27.069Z,91.63
2024-03-09T05:35:30.326Z,92.21
2024-03-09T05:37:31.900Z,92.04
2024-03-09T05:39:33.529Z,92.52
2024-03-09T05:41:36.418Z,92.24
2024-03-09T05:43:38.020Z,92.49
2024-03-09T05:45:39.675Z,92.46
2024-03-09T05:47:41.209Z,93.03
2024-03-09T05:49:44.721Z,92.97
2024-03-09T05:51:46.342Z,92.98
2024-03-09T05:53:47.876Z,93.15
2024-03-09T05:55:49.560Z,93.45
2024-03-09T05:57:54.073Z,93.67
2024-03-09T05:59:55.614Z,93.48
2024-03-09T06:01:57.188Z,92.93
2024-03-09T06:03:58.714Z,93.80
2024-03-09T06:06:00.284Z,92.76
2024-03-09T06:08:01.884Z,92.86
2024-03-09T06:10:03.954Z,93.28
2024-03-09T06:12:06.256Z,93.07
2024-03-09T06:14:09.209Z,93.51
2024-03-09T06:16:10.778Z,93.00
2024-03-09T06:18:12.674Z,93.85
2024-03-09T06:20:16.267Z,93.51
2024-03-09T06:22:17.968Z,93.43
2024-03-09T06:24:19.494Z,93.53
2024-03-09T06:26:21.059Z,92.57
2024-03-09T06:28:22.660Z,92.57
2024-03-09T06:30:29.726Z,92.90
2024-03-09T06:32:33.564Z,93.28
2024-03-09T06:34:35.110Z,93.08
2024-03-09T06:36:36.699Z,92.88
2024-03-09T06:38:38.221Z,93.83
2024-03-09T06:40:41.195Z,93.54
2024-03-09T06:42:42.774Z,93.38
2024-03-09T06:44:44.324Z,92.86
2024-03-09T06:46:47.476Z,92.39
2024-03-09T06:48:49.031Z,92.34
2024-03-09T06:50:50.641Z,92.46
2024-03-09T06:52:52.233Z,93.10
2024-03-09T06:54:53.830Z,92.50
2024-03-09T06:56:55.438Z,93.17
2024-03-09T06:58:58.772Z,92.88
2024-03-09T07:01:00.381Z,93.51
2024-03-09T07:03:03.513Z,94.45
2024-03-09T07:05:05.850Z,94.46
2024-03-09T07:07:07.397Z,93.61
2024-03-09T07:09:08.969Z,94.06
2024-03-09T07:11:11.293Z,94.24
2024-03-09T07:13:12.932Z,94.50
2024-03-09T07:15:14.733Z,94.47
2024-03-09T07:17:16.308Z,93.38
2024-03-09T07:19:19.356Z,93.29
2024-03-09T07:21:20.962Z,93.12
2024-03-09T07:23:22.571Z,92.32
2024-03-09T07:25:26.966Z,91.57
2024-03-09T07:27:28.796Z,91.85
2024-03-09T07:29:30.323Z,91.30
2024-03-09T07:31:32.034Z,91.03
2024-03-09T07:33:33.650Z,91.81
2024-03-09T07:35:36.931Z,91.67
2024-03-09T07:37:38.476Z,91.97
2024-03-09T07:39:40.118Z,91.54
2024-03-09T07:41:41.750Z,90.84
2024-03-09T07:43:43.369Z,90.00
2024-03-09T07:45:44.938Z,89.18
2024-03-09T07:47:47.937Z,88.75
2024-03-09T07:49:49.592Z,88.94
2024-03-09T07:51:52.531Z,88.79
2024-03-09T07:53:54.135Z,88.66
2024-03-09T07:55:55.763Z,88.30
2024-03-09T07:58:08.935Z,87.46
2024-03-09T08:00:20.044Z,86.63
2024-03-09T08:02:21.721Z,87.24
2024-03-09T08:04:23.305Z,87.08
2024-03-09T08:06:24.842Z,86.75
2024-03-09T08:08:27.761Z,86.12
2024-03-09T08:10:29.708Z,86.44
2024-03-09T08:12:31.300Z,86.37
2024-03-09T08:14:32.849Z,86.09
2024-03-09T08:16:36.784Z,86.21
2024-03-09T08:18:38.329Z,86.17
2024-03-09T08:20:39.900Z,85.51
2024-03-09T08:22:42.060Z,85.36
2024-03-09T08:24:45.009Z,84.68
2024-03-09T08:26:49.421Z,84.20
2024-03-09T08:28:51.036Z,83.83
2024-03-09T08:30:55.080Z,82.94
2024-03-09T08:32:58.351Z,83.24
2024-03-09T08:35:00.034Z,82.57
2024-03-09T08:37:04.239Z,82.20
2024-03-09T08:39:05.785Z,82.75
2024-03-09T08:41:08.771Z,82.50
2024-03-09T08:43:10.344Z,82.63
2024-03-09T08:45:11.977Z,81.75
2024-03-09T08:47:13.594Z,81.12
2024-03-09T08:49:15.219Z,81.07
2024-03-09T08:51:16.804Z,80.99
2024-03-09T08:53:18.962Z,80.65
2024-03-09T08:55:20.809Z,80.14
2024-03-09T08:57:23.734Z,80.21
2024-03-09T08:59:25.304Z,79.81
2024-03-09T09:01:26.925Z,79.24
2024-03-09T09:03:28.646Z,78.62
2024-03-09T09:05:30.667Z,78.81
2024-03-09T09:07:32.346Z,78.78
2024-03-09T09:09:33.896Z,78.32
2024-03-09T09:11:35.512Z,77.62
2024-03-09T09:13:38.484Z,77.48
2024-03-09T09:15:40.044Z,75.82
2024-03-09T09:17:41.705Z,74.91
2024-03-09T09:19:43.314Z,73.88
2024-03-09T09:21:44.880Z,74.17
2024-03-09T09:23:46.460Z,74.70
2024-03-09T09:25:48.072Z,74.12
2024-03-09T09:27:49.699Z,73.17
2024-03-09T09:29:52.639Z,73.52
2024-03-09T09:31:54.223Z,74.39
2024-03-09T09:33:55.895Z,72.49
2024-03-09T09:35:57.475Z,71.93
2024-03-09T09:37:59.789Z,71.85
2024-03-09T09:40:01.893Z,71.26
2024-03-09T09:42:03.613Z,71.40
2024-03-09T09:44:06.451Z,70.73
2024-03-09T09:46:09.464Z,69.82
2024-03-09T09:48:11.137Z,69.91
2024-03-09T09:50:14.708Z,70.56
2024-03-09T09:52:16.741Z,69.65
2024-03-09T09:54:21.105Z,69.50
2024-03-09T09:56:22.710Z,68.72
2024-03-09T09:58:25.628Z,68.89
2024-03-09T10:00:27.232Z,67.44
2024-03-09T10:02:30.945Z,67.02
2024-03-09T10:04:36.442Z,67.14
2024-03-09T10:06:38.041Z,66.91
2024-03-09T10:08:47.877Z,66.73
2024-03-09T10:10:49.943Z,66.72
2024-03-09T10:13:04.471Z,66.00
2024-03-09T10:15:12.594Z,65.36
2024-03-09T10:17:14.269Z,64.71
2024-03-09T10:19:18.185Z,64.52
2024-03-09T10:21:26.709Z,63.37
2024-03-09T10:23:28.314Z,63.73
2024-03-09T10:25:30.049Z,62.79
2024-03-09T10:27:32.409Z,61.11
2024-03-09T10:29:34.918Z,62.74
2024-03-09T10:31:39.133Z,61.81
2024-03-09T10:33:40.824Z,61.49
2024-03-09T10:35:44.999Z,61.21
2024-03-09T10:37:48.637Z,59.64
2024-03-09T10:39:50.222Z,57.91
2024-03-09T10:41:52.749Z,58.78
2024-03-09T10:43:57.145Z,58.24
2024-03-09T10:46:01.603Z,56.15
2024-03-09T10:48:04.934Z,55.70
2024-03-09T10:50:12.877Z,56.00
2024-03-09T10:52:20.255Z,56.34
2024-03-09T10:54:30.257Z,53.64
2024-03-09T10:56:32.103Z,53.50
2024-03-09T10:58:34.609Z,53.78
2024-03-09T11:00:36.258Z,52.54
2024-03-09T11:02:38.426Z,52.30
2024-03-09T11:04:41.664Z,52.27
2024-03-09T11:06:43.974Z,52.44
2024-03-09T11:08:48.527Z,52.32
2024-03-09T11:10:50.579Z,52.22
2024-03-09T11:12:53.439Z,52.78
2024-03-09T11:14:57.514Z,53.29
2024-03-09T11:16:59.984Z,54.64
2024-03-09T11:19:02.894Z,54.07
2024-03-09T11:21:04.786Z,55.59
2024-03-09T11:23:06.399Z,54.51
2024-03-09T11:25:10.094Z,53.59
2024-03-09T11:27:11.698Z,52.96
2024-03-09T11:29:13.440Z,53.74
2024-03-09T11:31:15.906Z,53.06
2024-03-09T11:33:17.618Z,53.92
2024-03-09T11:35:29.998Z,54.85
2024-03-09T11:37:44.925Z,54.76
2024-03-09T11:39:47.379Z,53.59
2024-03-09T11:41:52.008Z,54.10
2024-03-09T11:43:53.676Z,52.49
2024-03-09T11:45:55.382Z,57.21
2024-03-09T11:47:58.397Z,52.69
2024-03-09T11:50:02.692Z,53.41
2024-03-09T11:52:06.167Z,53.48
2024-03-09T11:54:11.468Z,53.56
2024-03-09T11:56:13.145Z,52.79
2024-03-09T11:58:16.470Z,52.68
2024-03-09T12:00:18.924Z,53.12
2024-03-09T12:02:20.580Z,52.79
2024-03-09T12:04:22.203Z,54.00
2024-03-09T12:06:24.116Z,53.51
2024-03-09T12:08:26.005Z,52.29
2024-03-09T12:10:27.680Z,52.58
2024-03-09T12:12:29.278Z,52.42
2024-03-09T12:14:32.272Z,52.82
2024-03-09T12:16:34.804Z,51.93
2024-03-09T12:18:36.433Z,52.10
2024-03-09T12:20:38.626Z,51.21
2024-03-09T12:22:40.401Z,50.62
2024-03-09T12:24:42.426Z,50.27
2024-03-09T12:26:44.279Z,51.45
2024-03-09T12:28:45.989Z,52.51
2024-03-09T12:30:50.808Z,52.34
2024-03-09T12:32:52.522Z,54.60
2024-03-09T12:34:54.317Z,49.76
2024-03-09T12:36:55.952Z,50.59
2024-03-09T12:39:09.084Z,51.27
2024-03-09T12:41:25.286Z,49.65
2024-03-09T12:43:29.262Z,49.11
2024-03-09T12:45:30.807Z,49.58
2024-03-09T12:47:33.875Z,50.51
2024-03-09T12:49:35.577Z,50.34
2024-03-09T12:51:37.256Z,49.21
2024-03-09T12:53:39.093Z,48.63
2024-03-09T12:55:40.744Z,48.54
2024-03-09T12:57:43.141Z,49.56
2024-03-09T12:59:44.899Z,49.76
2024-03-09T13:01:46.524Z,49.61
2024-03-09T13:03:57.704Z,48.74
2024-03-09T13:06:01.066Z,50.15
2024-03-09T13:08:02.991Z,48.50
2024-03-09T13:10:07.450Z,47.37
2024-03-09T13:12:10.596Z,46.98
2024-03-09T13:14:12.378Z,47.47
2024-03-09T13:16:14.037Z,46.63
2024-03-09T13:18:15.709Z,47.20
2024-03-09T13:20:19.418Z,46.17
2024-03-09T13:22:21.111Z,45.87
2024-03-09T13:24:22.997Z,46.87
2024-03-09T13:26:25.645Z,45.93
2024-03-09T13:28:27.282Z,45.74
2024-03-09T13:30:29.002Z,44.09
2024-03-09T13:32:30.591Z,43.72
2024-03-09T13:34:32.813Z,43.06
2024-03-09T13:36:35.922Z,43.50
2024-03-09T13:38:37.494Z,43.22
2024-03-09T13:40:39.214Z,42.54
2024-03-09T13:42:41.647Z,42.12
2024-03-09T13:44:43.260Z,41.96
2024-03-09T13:46:45.414Z,42.16
2024-03-09T13:48:47.163Z,41.66
2024-03-09T13:50:48.760Z,41.76
2024-03-09T13:52:51.764Z,41.31
2024-03-09T13:54:53.448Z,41.84
2024-03-09T13:56:55.120Z,41.03
2024-03-09T13:58:56.765Z,40.92
2024-03-09T14:00:58.433Z,40.46
2024-03-09T14:03:00.191Z,40.13
2024-03-09T14:05:01.894Z,40.13
2024-03-09T14:07:09.008Z,40.70
2024-03-09T14:09:12.785Z,40.24
2024-03-09T14:11:14.456Z,40.93
2024-03-09T14:13:16.251Z,41.22
2024-03-09T14:15:17.812Z,41.37
2024-03-09T14:17:19.508Z,41.58
2024-03-09T14:19:21.156Z,41.57
2024-03-09T14:21:22.765Z,41.39
2024-03-09T14:23:24.603Z,41.00
2024-03-09T14:25:27.689Z,41.51
2024-03-09T14:27:29.333Z,40.97
2024-03-09T14:29:31.019Z,41.05
2024-03-09T14:31:32.697Z,41.28
2024-03-09T14:33:34.296Z,42.03
2024-03-09T14:35:36.116Z,41.27
2024-03-09T14:37:37.743Z,41.52
2024-03-09T14:39:39.907Z,41.65
2024-03-09T14:41:43.038Z,42.19
2024-03-09T14:43:44.628Z,41.65
2024-03-09T14:45:46.190Z,40.59
2024-03-09T14:47:48.324Z,40.76
2024-03-09T14:49:50.076Z,41.35
2024-03-09T14:51:51.698Z,41.03
2024-03-09T14:53:54.562Z,41.03
2024-03-09T14:55:56.598Z,40.88
2024-03-09T14:58:00.327Z,41.33
2024-03-09T15:00:02.892Z,41.60
2024-03-09T15:02:04.951Z,41.80
2024-03-09T15:04:06.669Z,42.16
2024-03-09T15:06:08.530Z,41.95
2024-03-09T15:08:10.362Z,41.96
2024-03-09T15:10:12.262Z,41.25
2024-03-09T15:12:13.891Z,42.25
2024-03-09T15:14:16.959Z,41.70
2024-03-09T15:16:18.858Z,41.27
2024-03-09T15:18:20.726Z,41.21
2024-03-09T15:20:24.020Z,41.29
2024-03-09T15:22:26.860Z,42.25
2024-03-09T15:24:28.490Z,41.66
2024-03-09T15:26:31.019Z,42.18
2024-03-09T15:28:33.048Z,42.32
2024-03-09T15:30:36.116Z,43.10
2024-03-09T15:32:37.764Z,43.98
2024-03-09T15:34:39.430Z,44.71
2024-03-09T15:36:41.030Z,45.42
2024-03-09T15:38:43.608Z,45.72
2024-03-09T15:40:45.523Z,45.93
2024-03-09T15:42:47.582Z,45.68
2024-03-09T15:44:49.201Z,46.49
2024-03-09T15:46:52.182Z,46.19
2024-03-09T15:48:53.843Z,45.95
2024-03-09T15:50:55.453Z,46.23
2024-03-09T15:52:57.126Z,46.60
2024-03-09T15:54:58.873Z,46.37
2024-03-09T15:57:00.512Z,46.98
2024-03-09T15:59:02.255Z,46.92
2024-03-09T16:01:04.346Z,47.27
2024-03-09T16:03:07.367Z,47.29
2024-03-09T16:05:09.729Z,47.21
2024-03-09T16:07:11.499Z,47.37
2024-03-09T16:09:13.707Z,47.42
2024-03-09T16:11:15.688Z,47.33
2024-03-09T16:13:17.428Z,47.71
2024-03-09T16:15:19.216Z,47.66
2024-03-09T16:17:20.829Z,47.72
2024-03-09T16:19:23.820Z,48.21
2024-03-09T16:21:25.446Z,48.38
2024-03-09T16:23:27.062Z,47.83
2024-03-09T16:25:33.166Z,48.37
2024-03-09T16:27:35.262Z,48.25
2024-03-09T16:29:36.936Z,49.01
2024-03-09T16:31:38.528Z,49.46
2024-03-09T16:33:40.174Z,49.79
2024-03-09T16:35:44.437Z,50.65
2024-03-09T16:37:45.999Z,50.65
2024-03-09T16:39:47.577Z,51.00
2024-03-09T16:41:49.109Z,51.73
2024-03-09T16:43:50.688Z,52.22
2024-03-09T16:45:52.231Z,52.26
2024-03-09T16:47:54.019Z,53.32
2024-03-09T16:49:55.566Z,53.57
2024-03-09T16:51:58.564Z,54.44
2024-03-09T16:54:00.157Z,54.69
2024-03-09T16:56:01.884Z,55.18
2024-03-09T16:58:03.771Z,55.84
2024-03-09T17:00:06.662Z,55.92
2024-03-09T17:02:08.268Z,56.01
2024-03-09T17:04:09.902Z,56.83
2024-03-09T17:06:11.499Z,57.18
2024-03-09T17:08:14.585Z,57.61
2024-03-09T17:10:16.644Z,57.99
2024-03-09T17:12:18.286Z,57.46
2024-03-09T17:14:20.006Z,57.85
2024-03-09T17:16:21.669Z,58.31
2024-03-09T17:18:23.306Z,58.64
2024-03-09T17:20:28.329Z,58.96
2024-03-09T17:22:31.424Z,59.11
2024-03-09T17:24:34.317Z,59.41
2024-03-09T17:26:36.078Z,59.27
2024-03-09T17:28:37.643Z,59.36
2024-03-09T17:30:39.205Z,59.95
2024-03-09T17:32:45.545Z,60.09
2024-03-09T17:34:47.974Z,59.70
2024-03-09T17:36:49.565Z,59.98
2024-03-09T17:38:51.140Z,60.02
2024-03-09T17:40:54.066Z,59.80
2024-03-09T17:42:55.874Z,59.83
2024-03-09T17:44:57.612Z,60.02
2024-03-09T17:46:59.270Z,60.32
2024-03-09T17:49:00.899Z,60.05
2024-03-09T17:51:02.487Z,60.48
2024-03-09T17:53:04.495Z,60.54
2024-03-09T17:55:07.841Z,60.78
2024-03-09T17:57:10.773Z,60.44
2024-03-09T17:59:12.543Z,60.52
2024-03-09T18:01:14.261Z,61.15
2024-03-09T18:03:15.920Z,61.85
2024-03-09T18:05:17.759Z,61.64
2024-03-09T18:07:19.341Z,62.16
2024-03-09T18:09:20.966Z,62.84
2024-03-09T18:11:22.699Z,62.90
2024-03-09T18:13:25.707Z,62.98
2024-03-09T18:15:27.575Z,63.98
2024-03-09T18:17:29.211Z,63.74
2024-03-09T18:19:30.864Z,64.22
2024-03-09T18:21:32.415Z,64.47
2024-03-09T18:23:34.115Z,64.67
2024-03-09T18:25:36.580Z,64.54
2024-03-09T18:27:38.126Z,64.57
2024-03-09T18:29:41.034Z,65.33
2024-03-09T18:31:44.002Z,64.74
2024-03-09T18:33:46.728Z,65.64
2024-03-09T18:35:48.754Z,65.89
2024-03-09T18:37:50.999Z,65.50
2024-03-09T18:39:52.591Z,66.14
2024-03-09T18:41:54.144Z,66.11
2024-03-09T18:43:55.788Z,66.92
2024-03-09T18:45:58.898Z,66.75
2024-03-09T18:48:00.536Z,67.21
2024-03-09T18:50:02.304Z,66.79
2024-03-09T18:52:04.430Z,66.71
2024-03-09T18:54:06.045Z,66.75
2024-03-09T18:56:07.744Z,67.31
2024-03-09T18:58:09.569Z,67.20
2024-03-09T19:00:13.875Z,67.22
2024-03-09T19:02:16.808Z,67.56
2024-03-09T19:04:18.493Z,67.59
2024-03-09T19:06:20.036Z,67.96
2024-03-09T19:08:21.632Z,68.56
2024-03-09T19:10:23.730Z,69.26
2024-03-09T19:12:25.314Z,68.76
2024-03-09T19:14:26.977Z,68.26
2024-03-09T19:16:28.536Z,68.50
2024-03-09T19:18:31.496Z,68.43
2024-03-09T19:20:33.083Z,68.79
2024-03-09T19:22:34.640Z,68.85
2024-03-09T19:24:36.225Z,69.45
2024-03-09T19:26:43.310Z,68.89
2024-03-09T19:28:44.941Z,69.47
2024-03-09T19:30:46.573Z,69.45
2024-03-09T19:32:49.278Z,68.61
2024-03-09T19:34:52.240Z,68.80
2024-03-09T19:36:53.804Z,68.74
2024-03-09T19:38:55.461Z,69.10
2024-03-09T19:40:57.003Z,68.44
2024-03-09T19:42:59.482Z,68.61
2024-03-09T19:45:01.205Z,68.32
2024-03-09T19:47:02.886Z,68.27
2024-03-09T19:49:04.482Z,68.01
2024-03-09T19:51:07.368Z,67.77
2024-03-09T19:53:08.952Z,67.72
2024-03-09T19:55:10.718Z,68.13
2024-03-09T19:57:12.445Z,67.38
2024-03-09T19:59:14.172Z,68.16
2024-03-09T20:01:15.807Z,67.69
2024-03-09T20:03:17.491Z,67.76
2024-03-09T20:05:19.364Z,66.92
2024-03-09T20:07:22.309Z,66.86
2024-03-09T20:09:23.949Z,66.90
2024-03-09T20:11:25.663Z,66.59
2024-03-09T20:13:27.302Z,66.82
2024-03-09T20:15:29.337Z,66.91
2024-03-09T20:17:31.297Z,67.28
2024-03-09T20:19:32.980Z,67.27
2024-03-09T20:21:34.557Z,67.19
2024-03-09T20:23:37.531Z,67.09
2024-03-09T20:25:39.111Z,67.07
2024-03-09T20:27:41.360Z,67.23
2024-03-09T20:29:42.933Z,67.37
2024-03-09T20:31:44.470Z,68.17
2024-03-09T20:33:46.072Z,67.66
2024-03-09T20:35:47.728Z,67.92
2024-03-09T20:37:49.727Z,67.76
2024-03-09T20:39:52.783Z,67.96
2024-03-09T20:41:54.359Z,67.81
2024-03-09T20:43:55.897Z,67.53
2024-03-09T20:45:57.506Z,67.66
2024-03-09T20:47:59.108Z,67.57
2024-03-09T20:50:00.779Z,67.47
2024-03-09T20:52:02.568Z,68.12
2024-03-09T20:54:04.416Z,67.65
2024-03-09T20:56:07.706Z,67.18
2024-03-09T20:58:09.294Z,67.40
2024-03-09T21:00:12.181Z,67.59
2024-03-09T21:02:13.790Z,67.40
2024-03-09T21:04:15.385Z,67.55
2024-03-09T21:06:17.059Z,67.33
2024-03-09T21:08:18.734Z,67.45
2024-03-09T21:10:20.327Z,67.07
2024-03-09T21:12:23.244Z,67.36
2024-03-09T21:14:24.862Z,67.20
2024-03-09T21:16:26.448Z,67.53
2024-03-09T21:18:28.228Z,67.43
2024-03-09T21:20:30.002Z,67.14
2024-03-09T21:22:31.611Z,67.52
2024-03-09T21:24:33.457Z,68.26
2024-03-09T21:26:35.080Z,68.12
2024-03-09T21:28:38.030Z,68.44
2024-03-09T21:30:39.776Z,68.63
2024-03-09T21:32:42.325Z,68.17
2024-03-09T21:34:43.974Z,68.84
2024-03-09T21:36:45.635Z,69.18
2024-03-09T21:38:47.377Z,69.53
2024-03-09T21:40:48.983Z,68.09
2024-03-09T21:42:51.308Z,68.89
2024-03-09T21:44:54.235Z,68.43
2024-03-09T21:46:55.834Z,67.65
2024-03-09T21:48:57.496Z,67.49
2024-03-09T21:51:07.217Z,67.88
2024-03-09T21:53:10.445Z,67.87
2024-03-09T21:55:12.174Z,67.67
2024-03-09T21:57:13.769Z,67.81
2024-03-09T21:59:15.353Z,67.62
2024-03-09T22:01:18.285Z,67.37
2024-03-09T22:03:19.835Z,66.76
2024-03-09T22:05:22.195Z,66.27
2024-03-09T22:07:23.849Z,66.18
2024-03-09T22:09:25.418Z,66.44
2024-03-09T22:11:27.156Z,66.47
2024-03-09T22:13:28.832Z,66.02
2024-03-09T22:15:30.388Z,66.29
2024-03-09T22:17:33.564Z,66.49
2024-03-09T22:19:35.281Z,66.22
2024-03-09T22:21:36.877Z,66.09
2024-03-09T22:23:38.564Z,66.26
2024-03-09T22:25:40.152Z,66.36
2024-03-09T22:27:41.824Z,66.44
2024-03-09T22:29:44.923Z,66.75
2024-03-09T22:31:46.523Z,66.05
2024-03-09T22:33:49.450Z,66.55
2024-03-09T22:35:51.263Z,66.63
2024-03-09T22:37:52.985Z,66.31
2024-03-09T22:39:54.682Z,66.11
2024-03-09T22:41:56.311Z,65.91
2024-03-09T22:43:58.180Z,66.14
2024-03-09T22:45:59.744Z,65.78
2024-03-09T22:48:01.293Z,66.99
2024-03-09T22:50:05.274Z,66.36
2024-03-09T22:52:07.732Z,66.98
2024-03-09T22:54:09.311Z,65.88
2024-03-09T22:56:10.933Z,66.05
2024-03-09T22:58:12.519Z,66.50
2024-03-09T23:00:15.818Z,66.36
2024-03-09T23:02:17.699Z,65.49
2024-03-09T23:04:19.364Z,65.15
2024-03-09T23:06:22.281Z,65.25
2024-03-09T23:08:23.922Z,63.56
2024-03-09T23:10:25.787Z,63.87
2024-03-09T23:12:27.694Z,63.10
2024-03-09T23:14:29.397Z,62.71
2024-03-09T23:16:31.549Z,62.77
2024-03-09T23:18:33.413Z,62.93
2024-03-09T23:20:35.248Z,62.99
2024-03-09T23:22:38.410Z,62.02
2024-03-09T23:24:39.999Z,61.26
2024-03-09T23:26:41.624Z,61.32
2024-03-09T23:28:43.201Z,61.44
2024-03-09T23:30:44.817Z,61.48
2024-03-09T23:32:47.124Z,61.08
2024-03-09T23:34:48.840Z,60.58
2024-03-09T23:36:50.629Z,61.07
2024-03-09T23:38:53.608Z,60.71
2024-03-09T23:40:55.466Z,61.06
2024-03-09T23:42:57.063Z,61.44
2024-03-09T23:44:58.690Z,63.28
2024-03-09T23:47:00.238Z,63.71
2024-03-09T23:49:01.920Z,63.70
2024-03-09T23:51:04.020Z,65.60
2024-03-09T23:53:05.691Z,65.05
2024-03-09T23:55:09.296Z,65.79
2024-03-09T23:57:10.891Z,67.47
2024-03-09T23:59:12.532Z,66.76
